Guanajuato, Mexico

4:47 AM CDT on September 15, 2014 (GMT -0500)
CEPC-01-GTO | Change Station
CLOSE
Current Station
Personal Weather Station
Location: Guanajuato, GUANAJUATO
Elevation: 6489 ft
Nearby Weather Stations

Elev 6489 ft 21.01 °N, 101.28 °W | Updated 2 minutes ago

Scattered Clouds
Scattered Clouds
60.2 °F
Feels Like 60.2 °F
N
0.0
Wind Variable Wind from North
Gusts 0.0 mph

Today
High -- | Low -- °F
--% Chance of Precip.
Yesterday
High -- | Low -- °F
Precip. -- in
7:32 AM 7:47 PM
Waning Gibbous, 57% visible
Pressure 29.90 in
Visibility 8.0 miles
Clouds Scattered Clouds 20000 ft
Dew Point 51 °F
Humidity 72%
Rainfall -999.00 in
Snow Depth Not available.
UV 0 out of 12
Pollen Not available.
Air Quality Not available.
Flu Activity Not available.
METAR MMLO 150844Z 36006KT 8SM SCT200 16/12 A3030 RMK SLP125 54000 931 8/002

More Conditions Fewer Conditions

Pressure 29.90 in
Visibility 8.0 miles
Clouds Scattered Clouds 20000 ft
Dew Point 51 °F
Humidity 72%
Rainfall -999.00 in
Snow Depth Not available.
UV 0 out of 12
Pollen Not available.
Air Quality Not available.
Flu Activity Not available.
METAR MMLO 150844Z 36006KT 8SM SCT200 16/12 A3030 RMK SLP125 54000 931 8/002

More Conditions Fewer Conditions

10-Day Weather Forecast

Almanac

Astronomy

Sep. 15, 2014 Rise Set
Actual Time 7:32 AM CDT 7:47 PM CDT
Civil Twilight 7:09 AM CDT 8:10 PM CDT
Nautical Twilight 6:44 AM CDT 8:35 PM CDT
Astronomical Twilight 6:17 AM CDT 9:01 PM CDT
Moon 12:25 AM CDT 1:50 PM CDT
Length of Visible Light 13h 00m
Length of Day
12h 15m
Tomorrow will be 1m 11s shorter.
Waning Gibbous, 57% of the Moon is Illuminated
Today
Waning Gibbous
Sep 15
Last Quarter
Sep 24
New
Oct 1
First Quarter
Oct 8
Full

Yesterday's Extremes

Country Highs Country Lows

Community

WunderPhotos

Upload Photos

1,753,427 photos uploaded!

Nearby

Snow Depth

Not available.

Earthquake Activity

City Distance Mag. Time & Date
No recent earthquake activity has been reported nearby.
Minimum magnitude displayed is 2.5.

Coastal Water Temperatures

Place Temperature
No Stations Reporting

Nearby Weather Stations